sensor_id;sensor_type;location;lat;lon;timestamp;P1;durP1;ratioP1;P2;durP2;ratioP2
44558;SDS011;30270;40.238;18.256;2022-09-14T00:01:33;4.82;;;2.75;;
44558;SDS011;30270;40.238;18.256;2022-09-14T00:04:03;3.83;;;2.35;;
44558;SDS011;30270;40.238;18.256;2022-09-14T00:06:40;4.13;;;2.40;;
44558;SDS011;30270;40.238;18.256;2022-09-14T00:09:12;5.00;;;2.60;;
44558;SDS011;30270;40.238;18.256;2022-09-14T00:11:46;3.15;;;2.05;;
44558;SDS011;30270;40.238;18.256;2022-09-14T00:14:14;5.88;;;2.35;;
44558;SDS011;30270;40.238;18.256;2022-09-14T00:16:43;3.03;;;2.28;;
44558;SDS011;30270;40.238;18.256;2022-09-14T00:19:28;4.38;;;2.50;;
44558;SDS011;30270;40.238;18.256;2022-09-14T00:21:57;5.50;;;2.72;;
44558;SDS011;30270;40.238;18.256;2022-09-14T00:24:25;5.57;;;2.42;;
44558;SDS011;30270;40.238;18.256;2022-09-14T00:26:55;3.88;;;2.65;;
44558;SDS011;30270;40.238;18.256;2022-09-14T00:29:23;3.92;;;2.67;;
44558;SDS011;30270;40.238;18.256;2022-09-14T00:31:51;3.85;;;2.25;;
44558;SDS011;30270;40.238;18.256;2022-09-14T00:34:18;4.43;;;2.00;;
44558;SDS011;30270;40.238;18.256;2022-09-14T00:36:48;5.65;;;2.13;;
44558;SDS011;30270;40.238;18.256;2022-09-14T00:39:17;3.60;;;2.00;;
44558;SDS011;30270;40.238;18.256;2022-09-14T00:41:47;4.72;;;2.05;;
44558;SDS011;30270;40.238;18.256;2022-09-14T00:46:45;5.97;;;2.72;;
44558;SDS011;30270;40.238;18.256;2022-09-14T00:52:06;6.57;;;2.22;;
44558;SDS011;30270;40.238;18.256;2022-09-14T00:55:06;3.50;;;1.85;;
44558;SDS011;30270;40.238;18.256;2022-09-14T00:57:38;3.28;;;2.28;;
44558;SDS011;30270;40.238;18.256;2022-09-14T01:00:10;3.72;;;2.33;;
44558;SDS011;30270;40.238;18.256;2022-09-14T01:02:40;3.92;;;2.17;;
44558;SDS011;30270;40.238;18.256;2022-09-14T01:05:08;4.68;;;1.95;;
44558;SDS011;30270;40.238;18.256;2022-09-14T01:07:42;5.00;;;2.92;;
44558;SDS011;30270;40.238;18.256;2022-09-14T01:10:22;5.88;;;2.63;;
44558;SDS011;30270;40.238;18.256;2022-09-14T01:19:03;3.28;;;1.83;;
44558;SDS011;30270;40.238;18.256;2022-09-14T01:21:36;3.28;;;1.75;;
44558;SDS011;30270;40.238;18.256;2022-09-14T01:24:27;3.47;;;1.80;;
44558;SDS011;30270;40.238;18.256;2022-09-14T01:29:39;5.18;;;1.83;;
44558;SDS011;30270;40.238;18.256;2022-09-14T01:32:16;4.15;;;2.08;;
44558;SDS011;30270;40.238;18.256;2022-09-14T01:37:32;3.30;;;1.60;;
44558;SDS011;30270;40.238;18.256;2022-09-14T01:40:29;2.50;;;1.67;;
44558;SDS011;30270;40.238;18.256;2022-09-14T01:43:15;12.25;;;1.80;;
44558;SDS011;30270;40.238;18.256;2022-09-14T01:46:08;3.95;;;1.35;;
44558;SDS011;30270;40.238;18.256;2022-09-14T01:48:52;3.60;;;1.92;;
44558;SDS011;30270;40.238;18.256;2022-09-14T01:51:24;4.65;;;1.92;;
44558;SDS011;30270;40.238;18.256;2022-09-14T01:54:01;2.45;;;1.60;;
44558;SDS011;30270;40.238;18.256;2022-09-14T01:56:58;3.10;;;2.05;;
44558;SDS011;30270;40.238;18.256;2022-09-14T01:59:37;2.55;;;1.50;;
44558;SDS011;30270;40.238;18.256;2022-09-14T02:02:10;4.45;;;1.85;;
44558;SDS011;30270;40.238;18.256;2022-09-14T02:05:12;2.97;;;1.50;;
44558;SDS011;30270;40.238;18.256;2022-09-14T02:07:55;3.42;;;1.80;;
44558;SDS011;30270;40.238;18.256;2022-09-14T02:10:23;3.90;;;2.58;;
44558;SDS011;30270;40.238;18.256;2022-09-14T02:12:52;3.38;;;1.67;;
44558;SDS011;30270;40.238;18.256;2022-09-14T02:15:21;2.15;;;1.55;;
44558;SDS011;30270;40.238;18.256;2022-09-14T02:17:51;2.65;;;1.92;;
44558;SDS011;30270;40.238;18.256;2022-09-14T02:23:14;4.47;;;1.70;;
44558;SDS011;30270;40.238;18.256;2022-09-14T02:25:43;2.78;;;1.38;;
44558;SDS011;30270;40.238;18.256;2022-09-14T02:28:12;2.95;;;1.73;;
44558;SDS011;30270;40.238;18.256;2022-09-14T02:33:43;3.13;;;1.95;;
44558;SDS011;30270;40.238;18.256;2022-09-14T02:36:21;2.80;;;1.98;;
44558;SDS011;30270;40.238;18.256;2022-09-14T02:39:05;3.28;;;1.67;;
44558;SDS011;30270;40.238;18.256;2022-09-14T02:42:01;3.20;;;1.50;;
44558;SDS011;30270;40.238;18.256;2022-09-14T02:53:08;3.40;;;1.77;;
44558;SDS011;30270;40.238;18.256;2022-09-14T02:55:59;3.70;;;1.63;;
44558;SDS011;30270;40.238;18.256;2022-09-14T02:58:48;3.28;;;1.52;;
44558;SDS011;30270;40.238;18.256;2022-09-14T03:01:17;1.63;;;1.10;;
44558;SDS011;30270;40.238;18.256;2022-09-14T03:03:46;2.92;;;1.75;;
44558;SDS011;30270;40.238;18.256;2022-09-14T03:06:14;3.42;;;1.70;;
44558;SDS011;30270;40.238;18.256;2022-09-14T03:08:41;2.75;;;1.95;;
44558;SDS011;30270;40.238;18.256;2022-09-14T03:11:09;2.83;;;1.38;;
44558;SDS011;30270;40.238;18.256;2022-09-14T03:13:37;2.53;;;1.63;;
44558;SDS011;30270;40.238;18.256;2022-09-14T03:16:10;2.38;;;1.50;;
44558;SDS011;30270;40.238;18.256;2022-09-14T03:18:39;4.53;;;1.85;;
44558;SDS011;30270;40.238;18.256;2022-09-14T03:21:10;3.63;;;1.38;;
44558;SDS011;30270;40.238;18.256;2022-09-14T03:23:41;3.72;;;1.80;;
44558;SDS011;30270;40.238;18.256;2022-09-14T03:26:11;3.45;;;1.40;;
44558;SDS011;30270;40.238;18.256;2022-09-14T03:28:41;2.60;;;1.40;;
44558;SDS011;30270;40.238;18.256;2022-09-14T03:31:10;3.25;;;1.42;;
44558;SDS011;30270;40.238;18.256;2022-09-14T03:33:38;3.10;;;1.65;;
44558;SDS011;30270;40.238;18.256;2022-09-14T03:38:46;4.00;;;1.67;;
44558;SDS011;30270;40.238;18.256;2022-09-14T03:41:15;2.50;;;1.58;;
44558;SDS011;30270;40.238;18.256;2022-09-14T03:43:44;2.97;;;1.30;;
44558;SDS011;30270;40.238;18.256;2022-09-14T03:46:16;2.90;;;1.50;;
44558;SDS011;30270;40.238;18.256;2022-09-14T03:48:47;3.10;;;1.30;;
44558;SDS011;30270;40.238;18.256;2022-09-14T03:51:15;3.97;;;1.40;;
44558;SDS011;30270;40.238;18.256;2022-09-14T03:53:43;1.90;;;1.10;;
44558;SDS011;30270;40.238;18.256;2022-09-14T03:56:12;1.80;;;1.27;;
44558;SDS011;30270;40.238;18.256;2022-09-14T03:58:45;3.58;;;1.30;;
44558;SDS011;30270;40.238;18.256;2022-09-14T04:01:15;4.57;;;2.28;;
44558;SDS011;30270;40.238;18.256;2022-09-14T04:03:44;3.72;;;1.60;;
44558;SDS011;30270;40.238;18.256;2022-09-14T04:06:12;5.13;;;2.55;;
44558;SDS011;30270;40.238;18.256;2022-09-14T04:08:42;9.27;;;2.45;;
44558;SDS011;30270;40.238;18.256;2022-09-14T04:13:42;6.95;;;2.53;;
44558;SDS011;30270;40.238;18.256;2022-09-14T04:16:10;4.75;;;2.00;;
44558;SDS011;30270;40.238;18.256;2022-09-14T04:18:38;2.45;;;1.67;;
44558;SDS011;30270;40.238;18.256;2022-09-14T04:21:14;5.07;;;2.22;;
44558;SDS011;30270;40.238;18.256;2022-09-14T04:23:43;6.80;;;2.58;;
44558;SDS011;30270;40.238;18.256;2022-09-14T04:26:31;5.70;;;2.25;;
44558;SDS011;30270;40.238;18.256;2022-09-14T04:28:59;4.30;;;2.80;;
44558;SDS011;30270;40.238;18.256;2022-09-14T04:31:26;6.82;;;1.65;;
44558;SDS011;30270;40.238;18.256;2022-09-14T04:33:54;7.78;;;1.70;;
44558;SDS011;30270;40.238;18.256;2022-09-14T04:36:23;3.70;;;1.73;;
44558;SDS011;30270;40.238;18.256;2022-09-14T04:38:57;2.83;;;1.77;;
44558;SDS011;30270;40.238;18.256;2022-09-14T04:41:26;2.60;;;1.30;;
44558;SDS011;30270;40.238;18.256;2022-09-14T04:43:55;2.47;;;1.50;;
44558;SDS011;30270;40.238;18.256;2022-09-14T04:46:24;4.22;;;1.38;;
44558;SDS011;30270;40.238;18.256;2022-09-14T04:48:54;2.13;;;1.17;;
44558;SDS011;30270;40.238;18.256;2022-09-14T04:51:22;2.92;;;1.52;;
44558;SDS011;30270;40.238;18.256;2022-09-14T04:53:52;2.83;;;1.42;;
44558;SDS011;30270;40.238;18.256;2022-09-14T04:56:22;4.53;;;1.95;;
44558;SDS011;30270;40.238;18.256;2022-09-14T04:58:52;2.70;;;1.70;;
44558;SDS011;30270;40.238;18.256;2022-09-14T05:01:22;5.07;;;2.03;;
44558;SDS011;30270;40.238;18.256;2022-09-14T05:03:55;4.25;;;1.50;;
44558;SDS011;30270;40.238;18.256;2022-09-14T05:06:24;3.97;;;1.40;;
44558;SDS011;30270;40.238;18.256;2022-09-14T05:08:55;4.55;;;1.60;;
44558;SDS011;30270;40.238;18.256;2022-09-14T05:11:27;5.90;;;2.15;;
44558;SDS011;30270;40.238;18.256;2022-09-14T05:13:56;4.13;;;1.92;;
44558;SDS011;30270;40.238;18.256;2022-09-14T05:16:26;5.40;;;1.80;;
44558;SDS011;30270;40.238;18.256;2022-09-14T05:19:00;2.35;;;1.52;;
44558;SDS011;30270;40.238;18.256;2022-09-14T05:21:31;2.58;;;1.50;;
44558;SDS011;30270;40.238;18.256;2022-09-14T05:24:01;4.10;;;1.48;;
44558;SDS011;30270;40.238;18.256;2022-09-14T05:26:33;4.93;;;1.75;;
44558;SDS011;30270;40.238;18.256;2022-09-14T05:29:02;2.50;;;1.30;;
44558;SDS011;30270;40.238;18.256;2022-09-14T05:31:31;4.50;;;1.63;;
44558;SDS011;30270;40.238;18.256;2022-09-14T05:34:00;4.30;;;2.00;;
44558;SDS011;30270;40.238;18.256;2022-09-14T05:36:28;4.28;;;1.60;;
44558;SDS011;30270;40.238;18.256;2022-09-14T05:38:56;5.43;;;2.00;;
44558;SDS011;30270;40.238;18.256;2022-09-14T05:41:26;5.15;;;2.13;;
44558;SDS011;30270;40.238;18.256;2022-09-14T05:43:54;3.88;;;1.95;;
44558;SDS011;30270;40.238;18.256;2022-09-14T05:46:23;3.13;;;1.65;;
44558;SDS011;30270;40.238;18.256;2022-09-14T05:48:51;6.43;;;2.28;;
44558;SDS011;30270;40.238;18.256;2022-09-14T05:51:20;5.65;;;2.00;;
44558;SDS011;30270;40.238;18.256;2022-09-14T05:53:50;3.80;;;1.98;;
44558;SDS011;30270;40.238;18.256;2022-09-14T05:56:19;3.15;;;2.20;;
44558;SDS011;30270;40.238;18.256;2022-09-14T05:58:49;3.78;;;1.67;;
44558;SDS011;30270;40.238;18.256;2022-09-14T06:01:21;4.78;;;1.73;;
44558;SDS011;30270;40.238;18.256;2022-09-14T06:03:54;3.53;;;1.80;;
44558;SDS011;30270;40.238;18.256;2022-09-14T06:06:25;4.05;;;1.90;;
44558;SDS011;30270;40.238;18.256;2022-09-14T06:08:53;4.03;;;2.35;;
44558;SDS011;30270;40.238;18.256;2022-09-14T06:11:23;3.53;;;1.77;;
44558;SDS011;30270;40.238;18.256;2022-09-14T06:13:58;3.08;;;1.70;;
44558;SDS011;30270;40.238;18.256;2022-09-14T06:16:26;2.90;;;1.80;;
44558;SDS011;30270;40.238;18.256;2022-09-14T06:18:56;3.22;;;1.73;;
44558;SDS011;30270;40.238;18.256;2022-09-14T06:21:28;2.88;;;1.70;;
44558;SDS011;30270;40.238;18.256;2022-09-14T06:23:57;4.05;;;1.50;;
44558;SDS011;30270;40.238;18.256;2022-09-14T06:26:25;2.08;;;1.30;;
44558;SDS011;30270;40.238;18.256;2022-09-14T06:28:52;3.17;;;1.50;;
44558;SDS011;30270;40.238;18.256;2022-09-14T06:31:20;4.47;;;1.05;;
44558;SDS011;30270;40.238;18.256;2022-09-14T06:33:51;2.22;;;1.48;;
44558;SDS011;30270;40.238;18.256;2022-09-14T06:36:20;2.10;;;1.70;;
44558;SDS011;30270;40.238;18.256;2022-09-14T06:38:49;4.38;;;1.30;;
44558;SDS011;30270;40.238;18.256;2022-09-14T06:41:18;2.47;;;1.65;;
44558;SDS011;30270;40.238;18.256;2022-09-14T06:43:47;5.90;;;1.38;;
44558;SDS011;30270;40.238;18.256;2022-09-14T06:46:21;5.57;;;1.52;;
44558;SDS011;30270;40.238;18.256;2022-09-14T06:48:51;2.00;;;1.10;;
44558;SDS011;30270;40.238;18.256;2022-09-14T06:51:29;5.40;;;1.83;;
44558;SDS011;30270;40.238;18.256;2022-09-14T07:11:24;8.88;;;1.50;;
44558;SDS011;30270;40.238;18.256;2022-09-14T07:13:53;2.08;;;1.30;;
44558;SDS011;30270;40.238;18.256;2022-09-14T07:16:24;2.22;;;1.20;;
44558;SDS011;30270;40.238;18.256;2022-09-14T07:18:53;3.58;;;1.38;;
44558;SDS011;30270;40.238;18.256;2022-09-14T07:21:21;4.18;;;1.48;;
44558;SDS011;30270;40.238;18.256;2022-09-14T07:23:49;3.30;;;1.33;;
44558;SDS011;30270;40.238;18.256;2022-09-14T07:26:19;2.10;;;1.50;;
44558;SDS011;30270;40.238;18.256;2022-09-14T07:28:58;3.35;;;1.58;;
44558;SDS011;30270;40.238;18.256;2022-09-14T07:31:28;1.52;;;1.00;;
44558;SDS011;30270;40.238;18.256;2022-09-14T07:33:58;1.98;;;1.25;;
44558;SDS011;30270;40.238;18.256;2022-09-14T07:36:29;3.10;;;1.50;;
44558;SDS011;30270;40.238;18.256;2022-09-14T07:39:00;4.15;;;1.35;;
44558;SDS011;30270;40.238;18.256;2022-09-14T07:41:29;4.00;;;1.60;;
44558;SDS011;30270;40.238;18.256;2022-09-14T07:44:00;3.22;;;1.17;;
44558;SDS011;30270;40.238;18.256;2022-09-14T07:46:30;3.38;;;1.40;;
44558;SDS011;30270;40.238;18.256;2022-09-14T07:49:04;3.72;;;1.50;;
44558;SDS011;30270;40.238;18.256;2022-09-14T07:51:32;4.10;;;1.42;;
44558;SDS011;30270;40.238;18.256;2022-09-14T07:54:03;1.98;;;1.17;;
44558;SDS011;30270;40.238;18.256;2022-09-14T07:56:32;1.98;;;1.20;;
44558;SDS011;30270;40.238;18.256;2022-09-14T07:59:00;2.90;;;1.23;;
44558;SDS011;30270;40.238;18.256;2022-09-14T08:01:49;2.40;;;1.38;;
44558;SDS011;30270;40.238;18.256;2022-09-14T08:04:17;2.53;;;1.42;;
44558;SDS011;30270;40.238;18.256;2022-09-14T08:06:44;2.53;;;1.20;;
44558;SDS011;30270;40.238;18.256;2022-09-14T08:09:12;2.67;;;1.50;;
44558;SDS011;30270;40.238;18.256;2022-09-14T08:11:39;2.13;;;1.42;;
44558;SDS011;30270;40.238;18.256;2022-09-14T08:14:07;2.28;;;1.30;;
44558;SDS011;30270;40.238;18.256;2022-09-14T08:16:37;1.60;;;1.20;;
44558;SDS011;30270;40.238;18.256;2022-09-14T08:19:07;2.50;;;1.42;;
44558;SDS011;30270;40.238;18.256;2022-09-14T08:21:39;3.38;;;1.10;;
44558;SDS011;30270;40.238;18.256;2022-09-14T08:24:15;1.73;;;1.25;;
44558;SDS011;30270;40.238;18.256;2022-09-14T08:26:44;2.90;;;1.60;;
44558;SDS011;30270;40.238;18.256;2022-09-14T08:29:13;1.67;;;1.13;;
44558;SDS011;30270;40.238;18.256;2022-09-14T08:31:42;1.80;;;1.30;;
44558;SDS011;30270;40.238;18.256;2022-09-14T08:34:11;2.30;;;1.30;;
44558;SDS011;30270;40.238;18.256;2022-09-14T08:36:39;2.75;;;1.30;;
44558;SDS011;30270;40.238;18.256;2022-09-14T08:39:08;2.40;;;1.45;;
44558;SDS011;30270;40.238;18.256;2022-09-14T08:41:56;1.55;;;1.10;;
44558;SDS011;30270;40.238;18.256;2022-09-14T08:44:27;4.80;;;1.88;;
44558;SDS011;30270;40.238;18.256;2022-09-14T08:52:33;3.65;;;1.35;;
44558;SDS011;30270;40.238;18.256;2022-09-14T09:09:38;2.65;;;1.27;;
44558;SDS011;30270;40.238;18.256;2022-09-14T09:12:12;2.70;;;1.65;;
44558;SDS011;30270;40.238;18.256;2022-09-14T09:17:32;2.10;;;1.40;;
44558;SDS011;30270;40.238;18.256;2022-09-14T09:20:09;3.45;;;1.80;;
44558;SDS011;30270;40.238;18.256;2022-09-14T09:22:44;2.50;;;1.30;;
44558;SDS011;30270;40.238;18.256;2022-09-14T09:25:18;3.75;;;1.30;;
44558;SDS011;30270;40.238;18.256;2022-09-14T09:27:50;3.33;;;1.30;;
44558;SDS011;30270;40.238;18.256;2022-09-14T09:30:22;4.50;;;1.50;;
44558;SDS011;30270;40.238;18.256;2022-09-14T09:32:51;4.07;;;2.10;;
44558;SDS011;30270;40.238;18.256;2022-09-14T09:35:39;3.35;;;2.28;;
44558;SDS011;30270;40.238;18.256;2022-09-14T09:38:16;3.67;;;1.75;;
44558;SDS011;30270;40.238;18.256;2022-09-14T09:41:03;4.03;;;2.40;;
44558;SDS011;30270;40.238;18.256;2022-09-14T09:46:32;2.85;;;2.17;;
44558;SDS011;30270;40.238;18.256;2022-09-14T09:49:02;4.95;;;1.92;;
44558;SDS011;30270;40.238;18.256;2022-09-14T09:51:50;4.10;;;1.48;;
44558;SDS011;30270;40.238;18.256;2022-09-14T09:54:22;2.72;;;1.52;;
44558;SDS011;30270;40.238;18.256;2022-09-14T09:56:56;3.10;;;1.80;;
44558;SDS011;30270;40.238;18.256;2022-09-14T10:05:00;6.38;;;2.15;;
44558;SDS011;30270;40.238;18.256;2022-09-14T10:07:29;2.83;;;1.63;;
44558;SDS011;30270;40.238;18.256;2022-09-14T10:12:33;6.65;;;1.80;;
44558;SDS011;30270;40.238;18.256;2022-09-14T10:18:00;6.25;;;2.17;;
44558;SDS011;30270;40.238;18.256;2022-09-14T10:20:30;4.32;;;1.95;;
44558;SDS011;30270;40.238;18.256;2022-09-14T10:23:32;2.97;;;2.20;;
44558;SDS011;30270;40.238;18.256;2022-09-14T10:28:46;5.95;;;1.98;;
44558;SDS011;30270;40.238;18.256;2022-09-14T10:33:46;4.45;;;1.83;;
44558;SDS011;30270;40.238;18.256;2022-09-14T10:41:59;4.18;;;1.30;;
44558;SDS011;30270;40.238;18.256;2022-09-14T10:47:35;3.50;;;1.77;;
44558;SDS011;30270;40.238;18.256;2022-09-14T10:50:24;2.88;;;1.30;;
44558;SDS011;30270;40.238;18.256;2022-09-14T10:53:07;2.90;;;1.35;;
44558;SDS011;30270;40.238;18.256;2022-09-14T10:56:02;3.60;;;1.50;;
44558;SDS011;30270;40.238;18.256;2022-09-14T11:07:41;3.03;;;1.38;;
44558;SDS011;30270;40.238;18.256;2022-09-14T11:10:32;2.33;;;1.30;;
44558;SDS011;30270;40.238;18.256;2022-09-14T11:13:24;3.70;;;1.50;;
44558;SDS011;30270;40.238;18.256;2022-09-14T11:16:25;3.55;;;1.58;;
44558;SDS011;30270;40.238;18.256;2022-09-14T11:19:09;2.45;;;1.38;;
44558;SDS011;30270;40.238;18.256;2022-09-14T11:22:02;2.00;;;1.20;;
44558;SDS011;30270;40.238;18.256;2022-09-14T11:28:02;1.98;;;1.23;;
44558;SDS011;30270;40.238;18.256;2022-09-14T11:30:41;4.18;;;1.48;;
44558;SDS011;30270;40.238;18.256;2022-09-14T11:35:58;3.53;;;1.50;;
44558;SDS011;30270;40.238;18.256;2022-09-14T11:38:35;4.82;;;1.40;;
44558;SDS011;30270;40.238;18.256;2022-09-14T11:41:22;2.38;;;1.35;;
44558;SDS011;30270;40.238;18.256;2022-09-14T11:44:05;3.05;;;1.83;;
44558;SDS011;30270;40.238;18.256;2022-09-14T11:46:37;3.28;;;1.45;;
44558;SDS011;30270;40.238;18.256;2022-09-14T11:49:16;1.85;;;1.45;;
44558;SDS011;30270;40.238;18.256;2022-09-14T11:51:47;2.97;;;1.67;;
44558;SDS011;30270;40.238;18.256;2022-09-14T11:54:25;4.35;;;1.45;;
44558;SDS011;30270;40.238;18.256;2022-09-14T11:56:55;3.00;;;1.42;;
44558;SDS011;30270;40.238;18.256;2022-09-14T11:59:46;2.35;;;1.33;;
44558;SDS011;30270;40.238;18.256;2022-09-14T12:12:41;3.72;;;1.27;;
44558;SDS011;30270;40.238;18.256;2022-09-14T12:36:04;2.67;;;1.23;;
44558;SDS011;30270;40.238;18.256;2022-09-14T13:00:12;2.50;;;1.35;;
44558;SDS011;30270;40.238;18.256;2022-09-14T13:05:35;1.48;;;0.98;;
44558;SDS011;30270;40.238;18.256;2022-09-14T13:08:10;1.45;;;0.98;;
44558;SDS011;30270;40.238;18.256;2022-09-14T13:10:44;1.42;;;1.17;;
44558;SDS011;30270;40.238;18.256;2022-09-14T13:13:14;2.58;;;1.40;;
44558;SDS011;30270;40.238;18.256;2022-09-14T13:15:52;2.33;;;2.08;;
44558;SDS011;30270;40.238;18.256;2022-09-14T13:20:53;2.13;;;1.23;;
44558;SDS011;30270;40.238;18.256;2022-09-14T13:23:23;3.25;;;1.20;;
44558;SDS011;30270;40.238;18.256;2022-09-14T13:25:55;5.03;;;1.85;;
44558;SDS011;30270;40.238;18.256;2022-09-14T13:28:25;2.25;;;1.33;;
44558;SDS011;30270;40.238;18.256;2022-09-14T13:30:58;3.20;;;2.03;;
44558;SDS011;30270;40.238;18.256;2022-09-14T13:33:27;2.33;;;1.30;;
44558;SDS011;30270;40.238;18.256;2022-09-14T13:35:56;2.58;;;1.42;;
44558;SDS011;30270;40.238;18.256;2022-09-14T13:38:33;2.05;;;1.25;;
44558;SDS011;30270;40.238;18.256;2022-09-14T13:41:18;1.95;;;1.38;;
44558;SDS011;30270;40.238;18.256;2022-09-14T13:43:50;2.75;;;1.52;;
44558;SDS011;30270;40.238;18.256;2022-09-14T13:46:21;3.00;;;1.27;;
44558;SDS011;30270;40.238;18.256;2022-09-14T13:48:50;2.40;;;1.80;;
44558;SDS011;30270;40.238;18.256;2022-09-14T13:51:23;3.28;;;1.50;;
44558;SDS011;30270;40.238;18.256;2022-09-14T13:53:53;4.55;;;1.60;;
44558;SDS011;30270;40.238;18.256;2022-09-14T13:56:29;3.08;;;1.30;;
44558;SDS011;30270;40.238;18.256;2022-09-14T14:04:26;2.03;;;1.40;;
44558;SDS011;30270;40.238;18.256;2022-09-14T14:07:21;2.83;;;1.60;;
44558;SDS011;30270;40.238;18.256;2022-09-14T14:09:52;3.67;;;1.30;;
44558;SDS011;30270;40.238;18.256;2022-09-14T14:14:56;7.13;;;1.75;;
44558;SDS011;30270;40.238;18.256;2022-09-14T14:17:30;3.53;;;1.60;;
44558;SDS011;30270;40.238;18.256;2022-09-14T14:25:37;2.58;;;1.40;;
44558;SDS011;30270;40.238;18.256;2022-09-14T14:28:14;2.65;;;1.75;;
44558;SDS011;30270;40.238;18.256;2022-09-14T14:30:42;2.20;;;1.40;;
44558;SDS011;30270;40.238;18.256;2022-09-14T14:33:11;3.20;;;1.60;;
44558;SDS011;30270;40.238;18.256;2022-09-14T14:35:40;3.58;;;1.77;;
44558;SDS011;30270;40.238;18.256;2022-09-14T14:38:07;2.90;;;1.58;;
44558;SDS011;30270;40.238;18.256;2022-09-14T14:40:35;3.40;;;1.73;;
44558;SDS011;30270;40.238;18.256;2022-09-14T14:43:04;3.90;;;1.88;;
44558;SDS011;30270;40.238;18.256;2022-09-14T14:45:34;2.97;;;2.13;;
44558;SDS011;30270;40.238;18.256;2022-09-14T14:48:02;3.25;;;1.88;;
44558;SDS011;30270;40.238;18.256;2022-09-14T14:50:32;4.57;;;1.90;;
44558;SDS011;30270;40.238;18.256;2022-09-14T14:53:02;3.00;;;1.77;;
44558;SDS011;30270;40.238;18.256;2022-09-14T14:55:31;2.17;;;1.80;;
44558;SDS011;30270;40.238;18.256;2022-09-14T14:58:03;3.13;;;1.73;;
44558;SDS011;30270;40.238;18.256;2022-09-14T15:00:33;2.45;;;1.63;;
44558;SDS011;30270;40.238;18.256;2022-09-14T15:03:02;5.53;;;1.73;;
44558;SDS011;30270;40.238;18.256;2022-09-14T15:05:30;2.47;;;1.42;;
44558;SDS011;30270;40.238;18.256;2022-09-14T15:07:58;3.78;;;1.92;;
44558;SDS011;30270;40.238;18.256;2022-09-14T15:10:26;4.13;;;1.95;;
44558;SDS011;30270;40.238;18.256;2022-09-14T15:12:55;4.40;;;1.95;;
44558;SDS011;30270;40.238;18.256;2022-09-14T15:15:24;2.75;;;1.77;;
44558;SDS011;30270;40.238;18.256;2022-09-14T15:17:52;3.88;;;1.60;;
44558;SDS011;30270;40.238;18.256;2022-09-14T15:20:20;5.10;;;1.90;;
44558;SDS011;30270;40.238;18.256;2022-09-14T15:22:49;5.38;;;2.40;;
44558;SDS011;30270;40.238;18.256;2022-09-14T15:25:17;2.95;;;2.00;;
44558;SDS011;30270;40.238;18.256;2022-09-14T15:27:47;2.25;;;1.55;;
44558;SDS011;30270;40.238;18.256;2022-09-14T15:30:15;3.50;;;2.30;;
44558;SDS011;30270;40.238;18.256;2022-09-14T15:32:43;4.28;;;1.60;;
44558;SDS011;30270;40.238;18.256;2022-09-14T15:35:11;8.38;;;2.75;;
44558;SDS011;30270;40.238;18.256;2022-09-14T15:37:40;3.75;;;1.58;;
44558;SDS011;30270;40.238;18.256;2022-09-14T15:40:08;4.60;;;1.60;;
44558;SDS011;30270;40.238;18.256;2022-09-14T15:42:37;4.55;;;1.50;;
44558;SDS011;30270;40.238;18.256;2022-09-14T15:45:05;6.43;;;1.80;;
44558;SDS011;30270;40.238;18.256;2022-09-14T15:47:33;2.95;;;1.80;;
44558;SDS011;30270;40.238;18.256;2022-09-14T15:50:02;4.50;;;2.35;;
44558;SDS011;30270;40.238;18.256;2022-09-14T15:52:33;4.13;;;2.13;;
44558;SDS011;30270;40.238;18.256;2022-09-14T15:55:04;3.67;;;2.65;;
44558;SDS011;30270;40.238;18.256;2022-09-14T15:57:33;5.97;;;1.88;;
44558;SDS011;30270;40.238;18.256;2022-09-14T16:00:03;3.53;;;1.50;;
44558;SDS011;30270;40.238;18.256;2022-09-14T16:02:38;3.45;;;1.83;;
44558;SDS011;30270;40.238;18.256;2022-09-14T16:05:07;4.10;;;2.00;;
44558;SDS011;30270;40.238;18.256;2022-09-14T16:07:35;5.63;;;2.28;;
44558;SDS011;30270;40.238;18.256;2022-09-14T16:10:03;4.50;;;2.55;;
44558;SDS011;30270;40.238;18.256;2022-09-14T16:12:30;5.18;;;2.30;;
44558;SDS011;30270;40.238;18.256;2022-09-14T16:14:59;6.97;;;2.13;;
44558;SDS011;30270;40.238;18.256;2022-09-14T16:17:26;4.68;;;1.90;;
44558;SDS011;30270;40.238;18.256;2022-09-14T16:19:55;5.22;;;1.90;;
44558;SDS011;30270;40.238;18.256;2022-09-14T16:22:22;3.60;;;2.25;;
44558;SDS011;30270;40.238;18.256;2022-09-14T16:24:51;2.97;;;1.90;;
44558;SDS011;30270;40.238;18.256;2022-09-14T16:27:18;3.05;;;1.92;;
44558;SDS011;30270;40.238;18.256;2022-09-14T16:29:46;7.55;;;2.08;;
44558;SDS011;30270;40.238;18.256;2022-09-14T16:32:14;4.40;;;1.88;;
44558;SDS011;30270;40.238;18.256;2022-09-14T16:34:42;3.83;;;1.80;;
44558;SDS011;30270;40.238;18.256;2022-09-14T16:37:09;4.38;;;1.80;;
44558;SDS011;30270;40.238;18.256;2022-09-14T16:39:37;4.78;;;1.65;;
44558;SDS011;30270;40.238;18.256;2022-09-14T16:42:05;5.05;;;1.80;;
44558;SDS011;30270;40.238;18.256;2022-09-14T16:44:33;6.00;;;1.95;;
44558;SDS011;30270;40.238;18.256;2022-09-14T16:47:01;2.83;;;1.70;;
44558;SDS011;30270;40.238;18.256;2022-09-14T16:49:29;6.03;;;2.05;;
44558;SDS011;30270;40.238;18.256;2022-09-14T16:51:56;3.20;;;2.25;;
44558;SDS011;30270;40.238;18.256;2022-09-14T16:54:26;3.10;;;2.30;;
44558;SDS011;30270;40.238;18.256;2022-09-14T16:56:55;4.28;;;2.33;;
44558;SDS011;30270;40.238;18.256;2022-09-14T16:59:25;5.80;;;2.75;;
44558;SDS011;30270;40.238;18.256;2022-09-14T17:01:53;7.32;;;2.20;;
44558;SDS011;30270;40.238;18.256;2022-09-14T17:04:21;6.43;;;2.45;;
44558;SDS011;30270;40.238;18.256;2022-09-14T17:06:50;10.13;;;3.65;;
44558;SDS011;30270;40.238;18.256;2022-09-14T17:09:20;4.43;;;2.83;;
44558;SDS011;30270;40.238;18.256;2022-09-14T17:11:49;8.30;;;2.83;;
44558;SDS011;30270;40.238;18.256;2022-09-14T17:14:20;5.55;;;3.33;;
44558;SDS011;30270;40.238;18.256;2022-09-14T17:16:53;5.15;;;3.28;;
44558;SDS011;30270;40.238;18.256;2022-09-14T17:19:21;3.83;;;2.28;;
44558;SDS011;30270;40.238;18.256;2022-09-14T17:21:49;3.55;;;2.42;;
44558;SDS011;30270;40.238;18.256;2022-09-14T17:24:17;5.80;;;2.30;;
44558;SDS011;30270;40.238;18.256;2022-09-14T17:26:46;3.40;;;2.00;;
44558;SDS011;30270;40.238;18.256;2022-09-14T17:29:14;3.35;;;1.80;;
44558;SDS011;30270;40.238;18.256;2022-09-14T17:31:43;4.75;;;2.35;;
44558;SDS011;30270;40.238;18.256;2022-09-14T17:34:12;4.85;;;2.35;;
44558;SDS011;30270;40.238;18.256;2022-09-14T17:36:42;3.72;;;2.00;;
44558;SDS011;30270;40.238;18.256;2022-09-14T17:39:11;4.10;;;1.50;;
44558;SDS011;30270;40.238;18.256;2022-09-14T17:41:41;3.17;;;1.80;;
44558;SDS011;30270;40.238;18.256;2022-09-14T17:44:11;4.60;;;2.13;;
44558;SDS011;30270;40.238;18.256;2022-09-14T17:46:39;6.00;;;2.40;;
44558;SDS011;30270;40.238;18.256;2022-09-14T17:49:14;4.38;;;2.40;;
44558;SDS011;30270;40.238;18.256;2022-09-14T17:51:42;2.45;;;1.75;;
44558;SDS011;30270;40.238;18.256;2022-09-14T17:54:11;4.72;;;2.47;;
44558;SDS011;30270;40.238;18.256;2022-09-14T17:56:39;4.82;;;2.20;;
44558;SDS011;30270;40.238;18.256;2022-09-14T17:59:11;5.40;;;2.42;;
44558;SDS011;30270;40.238;18.256;2022-09-14T18:01:41;3.85;;;2.80;;
44558;SDS011;30270;40.238;18.256;2022-09-14T18:04:09;7.00;;;2.60;;
44558;SDS011;30270;40.238;18.256;2022-09-14T18:06:40;5.30;;;2.50;;
44558;SDS011;30270;40.238;18.256;2022-09-14T18:09:16;5.10;;;2.35;;
44558;SDS011;30270;40.238;18.256;2022-09-14T18:11:46;6.03;;;2.53;;
44558;SDS011;30270;40.238;18.256;2022-09-14T18:14:15;4.82;;;2.45;;